Terminal Aerodrome Forecast
Issued by NWS

Home | Current Version | Previous Version | Text Only | Print | Product List | Glossary On
Versions: 1 2 3 4 5 6 7 8 9 10 11 12
000
FTUS46 KOTX 242330
TAFCOE
TAF
KCOE 242330Z 2500/2524 25014G20KT P6SM BKN070 BKN200
     FM250200 33008KT P6SM SCT080 BKN150
     FM250500 VRB04KT P6SM SCT120 BKN200
     FM251500 21005KT P6SM BKN050 OVC100
     FM252100 23006KT P6SM VCSH SCT050 BKN100=

USA.gov is the U.S. government's official web portal to all federal, state and local government web resources and services.